sensor_id;sensor_type;location;lat;lon;timestamp;temperature;humidity
19552;DHT22;9921;47.186;9.778;2023-04-24T00:00:40;11.90;99.90
19552;DHT22;9921;47.186;9.778;2023-04-24T00:03:07;11.90;99.90
19552;DHT22;9921;47.186;9.778;2023-04-24T00:05:34;11.70;99.90
19552;DHT22;9921;47.186;9.778;2023-04-24T00:08:01;11.60;99.90
19552;DHT22;9921;47.186;9.778;2023-04-24T00:10:28;11.70;99.90
19552;DHT22;9921;47.186;9.778;2023-04-24T00:12:57;11.70;99.90
19552;DHT22;9921;47.186;9.778;2023-04-24T00:15:24;11.50;99.90
19552;DHT22;9921;47.186;9.778;2023-04-24T00:17:50;11.50;99.90
19552;DHT22;9921;47.186;9.778;2023-04-24T00:20:18;11.50;99.90
19552;DHT22;9921;47.186;9.778;2023-04-24T00:22:45;11.40;99.90
19552;DHT22;9921;47.186;9.778;2023-04-24T00:25:12;11.20;99.90
19552;DHT22;9921;47.186;9.778;2023-04-24T00:27:39;11.30;99.90
19552;DHT22;9921;47.186;9.778;2023-04-24T00:30:09;11.30;99.90
19552;DHT22;9921;47.186;9.778;2023-04-24T00:32:35;11.40;99.90
19552;DHT22;9921;47.186;9.778;2023-04-24T00:35:03;11.50;99.90
19552;DHT22;9921;47.186;9.778;2023-04-24T00:37:31;11.40;99.90
19552;DHT22;9921;47.186;9.778;2023-04-24T00:39:58;11.50;99.90
19552;DHT22;9921;47.186;9.778;2023-04-24T00:42:25;11.40;99.90
19552;DHT22;9921;47.186;9.778;2023-04-24T00:44:52;11.30;99.90
19552;DHT22;9921;47.186;9.778;2023-04-24T00:47:21;11.10;99.90
19552;DHT22;9921;47.186;9.778;2023-04-24T00:49:48;11.30;99.90
19552;DHT22;9921;47.186;9.778;2023-04-24T00:52:15;11.40;99.90
19552;DHT22;9921;47.186;9.778;2023-04-24T00:54:43;11.30;99.90
19552;DHT22;9921;47.186;9.778;2023-04-24T00:57:10;11.30;99.90
19552;DHT22;9921;47.186;9.778;2023-04-24T00:59:37;11.30;99.90
19552;DHT22;9921;47.186;9.778;2023-04-24T01:02:06;11.30;99.90
19552;DHT22;9921;47.186;9.778;2023-04-24T01:04:35;11.30;99.90
19552;DHT22;9921;47.186;9.778;2023-04-24T01:07:03;11.50;99.90
19552;DHT22;9921;47.186;9.778;2023-04-24T01:09:30;11.40;99.90
19552;DHT22;9921;47.186;9.778;2023-04-24T01:11:57;11.40;99.90
19552;DHT22;9921;47.186;9.778;2023-04-24T01:14:24;11.40;99.90
19552;DHT22;9921;47.186;9.778;2023-04-24T01:16:51;11.30;99.90
19552;DHT22;9921;47.186;9.778;2023-04-24T01:19:19;11.30;99.90
19552;DHT22;9921;47.186;9.778;2023-04-24T01:21:47;11.30;99.90
19552;DHT22;9921;47.186;9.778;2023-04-24T01:24:18;11.30;99.90
19552;DHT22;9921;47.186;9.778;2023-04-24T01:26:45;11.00;99.90
19552;DHT22;9921;47.186;9.778;2023-04-24T01:29:12;10.90;99.90
19552;DHT22;9921;47.186;9.778;2023-04-24T01:31:40;10.90;99.90
19552;DHT22;9921;47.186;9.778;2023-04-24T01:34:06;11.00;99.90
19552;DHT22;9921;47.186;9.778;2023-04-24T01:36:35;10.90;99.90
19552;DHT22;9921;47.186;9.778;2023-04-24T01:39:02;10.90;99.90
19552;DHT22;9921;47.186;9.778;2023-04-24T01:41:31;10.80;99.90
19552;DHT22;9921;47.186;9.778;2023-04-24T01:43:58;10.80;99.90
19552;DHT22;9921;47.186;9.778;2023-04-24T01:46:25;10.70;99.90
19552;DHT22;9921;47.186;9.778;2023-04-24T01:48:52;10.70;99.90
19552;DHT22;9921;47.186;9.778;2023-04-24T01:51:20;10.70;99.90
19552;DHT22;9921;47.186;9.778;2023-04-24T01:53:47;10.60;99.90
19552;DHT22;9921;47.186;9.778;2023-04-24T01:56:14;10.40;99.90
19552;DHT22;9921;47.186;9.778;2023-04-24T01:58:43;10.20;99.90
19552;DHT22;9921;47.186;9.778;2023-04-24T02:01:15;10.30;99.90
19552;DHT22;9921;47.186;9.778;2023-04-24T02:03:41;10.40;99.90
19552;DHT22;9921;47.186;9.778;2023-04-24T02:06:08;10.40;99.90
19552;DHT22;9921;47.186;9.778;2023-04-24T02:08:35;10.60;99.90
19552;DHT22;9921;47.186;9.778;2023-04-24T02:11:02;10.50;99.90
19552;DHT22;9921;47.186;9.778;2023-04-24T02:13:29;10.30;99.90
19552;DHT22;9921;47.186;9.778;2023-04-24T02:15:58;10.20;99.90
19552;DHT22;9921;47.186;9.778;2023-04-24T02:18:25;10.10;99.90
19552;DHT22;9921;47.186;9.778;2023-04-24T02:20:52;10.00;99.90
19552;DHT22;9921;47.186;9.778;2023-04-24T02:23:19;9.90;99.90
19552;DHT22;9921;47.186;9.778;2023-04-24T02:25:46;9.80;99.90
19552;DHT22;9921;47.186;9.778;2023-04-24T02:28:12;9.80;99.90
19552;DHT22;9921;47.186;9.778;2023-04-24T02:30:39;9.80;99.90
19552;DHT22;9921;47.186;9.778;2023-04-24T02:33:08;10.00;99.90
19552;DHT22;9921;47.186;9.778;2023-04-24T02:35:35;10.10;99.90
19552;DHT22;9921;47.186;9.778;2023-04-24T02:38:02;10.20;99.90
19552;DHT22;9921;47.186;9.778;2023-04-24T02:40:28;10.20;99.90
19552;DHT22;9921;47.186;9.778;2023-04-24T02:42:55;10.20;99.90
19552;DHT22;9921;47.186;9.778;2023-04-24T02:45:22;10.30;99.90
19552;DHT22;9921;47.186;9.778;2023-04-24T02:47:49;10.30;99.90
19552;DHT22;9921;47.186;9.778;2023-04-24T02:50:17;10.20;99.90
19552;DHT22;9921;47.186;9.778;2023-04-24T02:52:44;10.10;99.90
19552;DHT22;9921;47.186;9.778;2023-04-24T02:55:12;10.10;99.90
19552;DHT22;9921;47.186;9.778;2023-04-24T02:57:39;10.20;99.90
19552;DHT22;9921;47.186;9.778;2023-04-24T03:00:07;10.40;99.90
19552;DHT22;9921;47.186;9.778;2023-04-24T03:02:34;10.50;99.90
19552;DHT22;9921;47.186;9.778;2023-04-24T03:05:01;10.50;99.90
19552;DHT22;9921;47.186;9.778;2023-04-24T03:07:30;10.30;99.90
19552;DHT22;9921;47.186;9.778;2023-04-24T03:09:57;10.00;99.90
19552;DHT22;9921;47.186;9.778;2023-04-24T03:12:24;9.80;99.90
19552;DHT22;9921;47.186;9.778;2023-04-24T03:14:51;9.80;99.90
19552;DHT22;9921;47.186;9.778;2023-04-24T03:17:18;10.00;99.90
19552;DHT22;9921;47.186;9.778;2023-04-24T03:19:45;10.10;99.90
19552;DHT22;9921;47.186;9.778;2023-04-24T03:22:12;10.00;99.90
19552;DHT22;9921;47.186;9.778;2023-04-24T03:24:40;10.10;99.90
19552;DHT22;9921;47.186;9.778;2023-04-24T03:27:07;10.10;99.90
19552;DHT22;9921;47.186;9.778;2023-04-24T03:29:34;10.10;99.90
19552;DHT22;9921;47.186;9.778;2023-04-24T03:32:01;10.20;99.90
19552;DHT22;9921;47.186;9.778;2023-04-24T03:34:28;10.10;99.90
19552;DHT22;9921;47.186;9.778;2023-04-24T03:36:55;10.00;99.90
19552;DHT22;9921;47.186;9.778;2023-04-24T03:39:22;9.80;99.90
19552;DHT22;9921;47.186;9.778;2023-04-24T03:41:52;9.70;99.90
19552;DHT22;9921;47.186;9.778;2023-04-24T03:44:18;9.60;99.90
19552;DHT22;9921;47.186;9.778;2023-04-24T03:46:45;9.60;99.90
19552;DHT22;9921;47.186;9.778;2023-04-24T03:49:12;9.70;99.90
19552;DHT22;9921;47.186;9.778;2023-04-24T03:51:39;9.80;99.90
19552;DHT22;9921;47.186;9.778;2023-04-24T03:54:06;9.70;99.90
19552;DHT22;9921;47.186;9.778;2023-04-24T03:56:33;9.60;99.90
19552;DHT22;9921;47.186;9.778;2023-04-24T03:59:01;9.60;99.90
19552;DHT22;9921;47.186;9.778;2023-04-24T04:01:28;9.60;99.90
19552;DHT22;9921;47.186;9.778;2023-04-24T04:03:56;9.60;99.90
19552;DHT22;9921;47.186;9.778;2023-04-24T04:06:23;9.70;99.90
19552;DHT22;9921;47.186;9.778;2023-04-24T04:08:49;9.80;99.90
19552;DHT22;9921;47.186;9.778;2023-04-24T04:11:16;9.80;99.90
19552;DHT22;9921;47.186;9.778;2023-04-24T04:13:43;9.80;99.90
19552;DHT22;9921;47.186;9.778;2023-04-24T04:16:12;9.60;99.90
19552;DHT22;9921;47.186;9.778;2023-04-24T04:18:39;9.50;99.90
19552;DHT22;9921;47.186;9.778;2023-04-24T04:21:06;9.50;99.90
19552;DHT22;9921;47.186;9.778;2023-04-24T04:23:33;9.40;99.90
19552;DHT22;9921;47.186;9.778;2023-04-24T04:26:00;9.50;99.90
19552;DHT22;9921;47.186;9.778;2023-04-24T04:28:27;9.60;99.90
19552;DHT22;9921;47.186;9.778;2023-04-24T04:30:53;9.70;99.90
19552;DHT22;9921;47.186;9.778;2023-04-24T04:33:22;9.80;99.90
19552;DHT22;9921;47.186;9.778;2023-04-24T04:35:49;9.90;99.90
19552;DHT22;9921;47.186;9.778;2023-04-24T04:38:18;9.90;99.90
19552;DHT22;9921;47.186;9.778;2023-04-24T04:40:45;10.00;99.90
19552;DHT22;9921;47.186;9.778;2023-04-24T04:43:12;10.10;99.90
19552;DHT22;9921;47.186;9.778;2023-04-24T04:45:40;10.20;99.90
19552;DHT22;9921;47.186;9.778;2023-04-24T04:48:08;10.10;99.90
19552;DHT22;9921;47.186;9.778;2023-04-24T04:50:39;10.10;99.90
19552;DHT22;9921;47.186;9.778;2023-04-24T04:53:06;10.10;99.90
19552;DHT22;9921;47.186;9.778;2023-04-24T04:55:33;10.10;99.90
19552;DHT22;9921;47.186;9.778;2023-04-24T04:58:00;10.10;99.90
19552;DHT22;9921;47.186;9.778;2023-04-24T05:00:27;10.00;99.90
19552;DHT22;9921;47.186;9.778;2023-04-24T05:02:54;10.00;99.90
19552;DHT22;9921;47.186;9.778;2023-04-24T05:05:21;10.10;99.90
19552;DHT22;9921;47.186;9.778;2023-04-24T05:07:49;10.30;99.90
19552;DHT22;9921;47.186;9.778;2023-04-24T05:10:16;10.40;99.90
19552;DHT22;9921;47.186;9.778;2023-04-24T05:12:43;10.40;99.90
19552;DHT22;9921;47.186;9.778;2023-04-24T05:15:10;10.50;99.90
19552;DHT22;9921;47.186;9.778;2023-04-24T05:17:37;10.60;99.90
19552;DHT22;9921;47.186;9.778;2023-04-24T05:20:06;10.70;99.90
19552;DHT22;9921;47.186;9.778;2023-04-24T05:22:33;10.70;99.90
19552;DHT22;9921;47.186;9.778;2023-04-24T05:25:02;10.80;99.90
19552;DHT22;9921;47.186;9.778;2023-04-24T05:27:29;10.60;99.90
19552;DHT22;9921;47.186;9.778;2023-04-24T05:29:56;10.40;99.90
19552;DHT22;9921;47.186;9.778;2023-04-24T05:32:23;10.30;99.90
19552;DHT22;9921;47.186;9.778;2023-04-24T05:34:50;10.30;99.90
19552;DHT22;9921;47.186;9.778;2023-04-24T05:37:17;10.20;99.90
19552;DHT22;9921;47.186;9.778;2023-04-24T05:39:43;10.10;99.90
19552;DHT22;9921;47.186;9.778;2023-04-24T05:42:12;10.00;99.90
19552;DHT22;9921;47.186;9.778;2023-04-24T05:44:38;10.00;99.90
19552;DHT22;9921;47.186;9.778;2023-04-24T05:47:05;9.80;99.90
19552;DHT22;9921;47.186;9.778;2023-04-24T05:49:32;9.70;99.90
19552;DHT22;9921;47.186;9.778;2023-04-24T05:51:59;9.70;99.90
19552;DHT22;9921;47.186;9.778;2023-04-24T05:54:26;9.60;99.90
19552;DHT22;9921;47.186;9.778;2023-04-24T05:56:53;9.50;99.90
19552;DHT22;9921;47.186;9.778;2023-04-24T05:59:22;9.50;99.90
19552;DHT22;9921;47.186;9.778;2023-04-24T06:01:49;9.50;99.90
19552;DHT22;9921;47.186;9.778;2023-04-24T06:04:16;9.50;99.90
19552;DHT22;9921;47.186;9.778;2023-04-24T06:06:43;9.50;99.90
19552;DHT22;9921;47.186;9.778;2023-04-24T06:09:10;9.50;99.90
19552;DHT22;9921;47.186;9.778;2023-04-24T06:11:37;9.50;99.90
19552;DHT22;9921;47.186;9.778;2023-04-24T06:14:04;9.40;99.90
19552;DHT22;9921;47.186;9.778;2023-04-24T06:16:32;9.40;99.90
19552;DHT22;9921;47.186;9.778;2023-04-24T06:18:59;9.40;99.90
19552;DHT22;9921;47.186;9.778;2023-04-24T06:21:26;9.40;99.90
19552;DHT22;9921;47.186;9.778;2023-04-24T06:23:54;9.50;99.90
19552;DHT22;9921;47.186;9.778;2023-04-24T06:26:22;9.50;99.90
19552;DHT22;9921;47.186;9.778;2023-04-24T06:28:50;9.50;99.90
19552;DHT22;9921;47.186;9.778;2023-04-24T06:31:17;9.70;99.90
19552;DHT22;9921;47.186;9.778;2023-04-24T06:33:45;9.80;99.90
19552;DHT22;9921;47.186;9.778;2023-04-24T06:36:12;9.80;99.90
19552;DHT22;9921;47.186;9.778;2023-04-24T06:38:39;9.70;99.90
19552;DHT22;9921;47.186;9.778;2023-04-24T06:41:06;9.80;99.90
19552;DHT22;9921;47.186;9.778;2023-04-24T06:43:33;9.90;99.90
19552;DHT22;9921;47.186;9.778;2023-04-24T06:46:00;10.10;99.90
19552;DHT22;9921;47.186;9.778;2023-04-24T06:48:28;10.30;99.90
19552;DHT22;9921;47.186;9.778;2023-04-24T06:50:57;10.50;99.90
19552;DHT22;9921;47.186;9.778;2023-04-24T06:53:24;10.60;99.90
19552;DHT22;9921;47.186;9.778;2023-04-24T06:55:51;10.60;99.90
19552;DHT22;9921;47.186;9.778;2023-04-24T06:58:17;10.60;99.90
19552;DHT22;9921;47.186;9.778;2023-04-24T07:00:44;10.60;99.90
19552;DHT22;9921;47.186;9.778;2023-04-24T07:03:11;10.50;99.90
19552;DHT22;9921;47.186;9.778;2023-04-24T07:05:38;10.40;99.90
19552;DHT22;9921;47.186;9.778;2023-04-24T07:08:06;10.30;99.90
19552;DHT22;9921;47.186;9.778;2023-04-24T07:10:36;10.40;99.90
19552;DHT22;9921;47.186;9.778;2023-04-24T07:13:03;10.60;99.90
19552;DHT22;9921;47.186;9.778;2023-04-24T07:15:30;10.90;99.90
19552;DHT22;9921;47.186;9.778;2023-04-24T07:17:57;11.10;99.90
19552;DHT22;9921;47.186;9.778;2023-04-24T07:20:24;11.20;99.90
19552;DHT22;9921;47.186;9.778;2023-04-24T07:22:51;11.40;99.90
19552;DHT22;9921;47.186;9.778;2023-04-24T07:25:20;11.50;99.90
19552;DHT22;9921;47.186;9.778;2023-04-24T07:27:47;11.60;99.90
19552;DHT22;9921;47.186;9.778;2023-04-24T07:30:14;11.70;99.90
19552;DHT22;9921;47.186;9.778;2023-04-24T07:32:41;11.90;99.90
19552;DHT22;9921;47.186;9.778;2023-04-24T07:35:09;12.10;99.90
19552;DHT22;9921;47.186;9.778;2023-04-24T07:37:36;12.20;99.90
19552;DHT22;9921;47.186;9.778;2023-04-24T07:40:03;12.30;99.90
19552;DHT22;9921;47.186;9.778;2023-04-24T07:42:31;12.40;99.90
19552;DHT22;9921;47.186;9.778;2023-04-24T07:45:00;12.50;99.90
19552;DHT22;9921;47.186;9.778;2023-04-24T07:47:26;12.70;99.90
19552;DHT22;9921;47.186;9.778;2023-04-24T07:49:53;12.80;99.90
19552;DHT22;9921;47.186;9.778;2023-04-24T07:52:20;12.80;99.90
19552;DHT22;9921;47.186;9.778;2023-04-24T07:54:47;12.80;99.90
19552;DHT22;9921;47.186;9.778;2023-04-24T07:57:15;13.00;99.90
19552;DHT22;9921;47.186;9.778;2023-04-24T07:59:43;13.10;99.90
19552;DHT22;9921;47.186;9.778;2023-04-24T08:02:10;12.60;99.90
19552;DHT22;9921;47.186;9.778;2023-04-24T08:04:37;12.50;99.90
19552;DHT22;9921;47.186;9.778;2023-04-24T08:07:04;12.30;99.90
19552;DHT22;9921;47.186;9.778;2023-04-24T08:09:31;12.40;99.90
19552;DHT22;9921;47.186;9.778;2023-04-24T08:11:57;12.70;99.90
19552;DHT22;9921;47.186;9.778;2023-04-24T08:14:24;12.80;99.90
19552;DHT22;9921;47.186;9.778;2023-04-24T08:16:54;12.60;99.90
19552;DHT22;9921;47.186;9.778;2023-04-24T08:19:21;12.70;99.90
19552;DHT22;9921;47.186;9.778;2023-04-24T08:21:48;12.80;99.90
19552;DHT22;9921;47.186;9.778;2023-04-24T08:24:15;12.70;99.90
19552;DHT22;9921;47.186;9.778;2023-04-24T08:26:42;12.90;99.90
19552;DHT22;9921;47.186;9.778;2023-04-24T08:29:09;13.10;99.90
19552;DHT22;9921;47.186;9.778;2023-04-24T08:31:35;13.20;99.90
19552;DHT22;9921;47.186;9.778;2023-04-24T08:34:04;13.50;99.90
19552;DHT22;9921;47.186;9.778;2023-04-24T08:36:31;13.90;99.90
19552;DHT22;9921;47.186;9.778;2023-04-24T08:38:59;14.30;99.90
19552;DHT22;9921;47.186;9.778;2023-04-24T08:41:27;14.60;99.90
19552;DHT22;9921;47.186;9.778;2023-04-24T08:43:54;15.00;99.90
19552;DHT22;9921;47.186;9.778;2023-04-24T08:46:24;14.90;99.90
19552;DHT22;9921;47.186;9.778;2023-04-24T08:48:52;14.60;99.90
19552;DHT22;9921;47.186;9.778;2023-04-24T08:51:20;14.30;99.90
19552;DHT22;9921;47.186;9.778;2023-04-24T08:53:48;14.20;99.90
19552;DHT22;9921;47.186;9.778;2023-04-24T08:56:15;14.10;99.90
19552;DHT22;9921;47.186;9.778;2023-04-24T08:58:43;14.00;99.90
19552;DHT22;9921;47.186;9.778;2023-04-24T09:01:11;13.90;99.90
19552;DHT22;9921;47.186;9.778;2023-04-24T09:03:39;13.90;99.90
19552;DHT22;9921;47.186;9.778;2023-04-24T09:06:08;13.80;99.90
19552;DHT22;9921;47.186;9.778;2023-04-24T09:08:39;13.70;99.90
19552;DHT22;9921;47.186;9.778;2023-04-24T09:11:08;13.50;99.90
19552;DHT22;9921;47.186;9.778;2023-04-24T09:13:35;13.30;99.90
19552;DHT22;9921;47.186;9.778;2023-04-24T09:16:02;13.20;99.90
19552;DHT22;9921;47.186;9.778;2023-04-24T09:18:29;12.90;99.90
19552;DHT22;9921;47.186;9.778;2023-04-24T09:21:00;12.70;99.90
19552;DHT22;9921;47.186;9.778;2023-04-24T09:23:28;12.60;99.90
19552;DHT22;9921;47.186;9.778;2023-04-24T09:25:57;13.00;99.90
19552;DHT22;9921;47.186;9.778;2023-04-24T09:28:27;13.30;99.90
19552;DHT22;9921;47.186;9.778;2023-04-24T09:31:05;13.10;99.90
19552;DHT22;9921;47.186;9.778;2023-04-24T09:33:33;12.80;99.90
19552;DHT22;9921;47.186;9.778;2023-04-24T09:36:00;12.80;99.90
19552;DHT22;9921;47.186;9.778;2023-04-24T09:38:31;13.70;99.90
19552;DHT22;9921;47.186;9.778;2023-04-24T09:41:01;15.50;99.90
19552;DHT22;9921;47.186;9.778;2023-04-24T09:43:28;17.30;99.90
19552;DHT22;9921;47.186;9.778;2023-04-24T09:45:56;19.30;99.90
19552;DHT22;9921;47.186;9.778;2023-04-24T09:48:34;21.20;99.90
19552;DHT22;9921;47.186;9.778;2023-04-24T09:51:02;22.60;99.90
19552;DHT22;9921;47.186;9.778;2023-04-24T09:53:30;24.00;99.90
19552;DHT22;9921;47.186;9.778;2023-04-24T09:56:06;24.80;99.90
19552;DHT22;9921;47.186;9.778;2023-04-24T09:58:35;24.20;99.40
19552;DHT22;9921;47.186;9.778;2023-04-24T10:01:03;22.90;96.90
19552;DHT22;9921;47.186;9.778;2023-04-24T10:03:30;21.80;99.90
19552;DHT22;9921;47.186;9.778;2023-04-24T10:05:58;21.20;99.90
19552;DHT22;9921;47.186;9.778;2023-04-24T10:08:26;21.00;99.90
19552;DHT22;9921;47.186;9.778;2023-04-24T10:10:53;21.00;99.90
19552;DHT22;9921;47.186;9.778;2023-04-24T10:13:21;20.60;99.90
19552;DHT22;9921;47.186;9.778;2023-04-24T10:15:49;20.20;99.90
19552;DHT22;9921;47.186;9.778;2023-04-24T10:18:16;18.80;99.90
19552;DHT22;9921;47.186;9.778;2023-04-24T10:20:43;17.70;99.90
19552;DHT22;9921;47.186;9.778;2023-04-24T10:23:11;17.80;99.90
19552;DHT22;9921;47.186;9.778;2023-04-24T10:25:38;18.10;99.90
19552;DHT22;9921;47.186;9.778;2023-04-24T10:28:05;18.10;99.90
19552;DHT22;9921;47.186;9.778;2023-04-24T10:30:34;17.80;99.90
19552;DHT22;9921;47.186;9.778;2023-04-24T10:33:02;16.90;99.90
19552;DHT22;9921;47.186;9.778;2023-04-24T10:35:31;16.20;99.90
19552;DHT22;9921;47.186;9.778;2023-04-24T10:38:01;15.50;99.90
19552;DHT22;9921;47.186;9.778;2023-04-24T10:40:33;15.00;99.90
19552;DHT22;9921;47.186;9.778;2023-04-24T10:43:02;15.10;99.90
19552;DHT22;9921;47.186;9.778;2023-04-24T10:45:33;15.60;99.90
19552;DHT22;9921;47.186;9.778;2023-04-24T10:48:02;15.80;99.90
19552;DHT22;9921;47.186;9.778;2023-04-24T10:50:42;15.70;99.90
19552;DHT22;9921;47.186;9.778;2023-04-24T10:53:15;15.40;99.90
19552;DHT22;9921;47.186;9.778;2023-04-24T10:55:44;14.70;99.90
19552;DHT22;9921;47.186;9.778;2023-04-24T10:58:11;14.10;99.90
19552;DHT22;9921;47.186;9.778;2023-04-24T11:00:40;13.90;99.90
19552;DHT22;9921;47.186;9.778;2023-04-24T11:03:22;14.00;99.90
19552;DHT22;9921;47.186;9.778;2023-04-24T11:06:01;13.70;99.90
19552;DHT22;9921;47.186;9.778;2023-04-24T11:08:30;13.80;99.90
19552;DHT22;9921;47.186;9.778;2023-04-24T11:11:08;13.90;99.90
19552;DHT22;9921;47.186;9.778;2023-04-24T11:14:06;13.90;99.90
19552;DHT22;9921;47.186;9.778;2023-04-24T11:16:38;14.00;99.90
19552;DHT22;9921;47.186;9.778;2023-04-24T11:19:07;14.10;99.90
19552;DHT22;9921;47.186;9.778;2023-04-24T11:21:41;13.90;99.90
19552;DHT22;9921;47.186;9.778;2023-04-24T11:24:37;14.20;99.90
19552;DHT22;9921;47.186;9.778;2023-04-24T11:27:13;14.30;99.90
19552;DHT22;9921;47.186;9.778;2023-04-24T11:29:45;13.80;99.90
19552;DHT22;9921;47.186;9.778;2023-04-24T11:32:19;13.50;99.90
19552;DHT22;9921;47.186;9.778;2023-04-24T11:34:50;13.60;99.90
19552;DHT22;9921;47.186;9.778;2023-04-24T11:37:17;13.90;99.90
19552;DHT22;9921;47.186;9.778;2023-04-24T11:39:44;14.00;99.90
19552;DHT22;9921;47.186;9.778;2023-04-24T11:42:14;13.90;99.90
19552;DHT22;9921;47.186;9.778;2023-04-24T11:44:41;13.80;99.90
19552;DHT22;9921;47.186;9.778;2023-04-24T11:47:09;13.80;99.90
19552;DHT22;9921;47.186;9.778;2023-04-24T11:49:38;13.80;99.90
19552;DHT22;9921;47.186;9.778;2023-04-24T11:52:05;13.70;99.90
19552;DHT22;9921;47.186;9.778;2023-04-24T11:54:32;13.80;99.90
19552;DHT22;9921;47.186;9.778;2023-04-24T11:56:59;14.30;99.90
19552;DHT22;9921;47.186;9.778;2023-04-24T11:59:30;15.00;99.90
19552;DHT22;9921;47.186;9.778;2023-04-24T12:02:01;15.60;99.90
19552;DHT22;9921;47.186;9.778;2023-04-24T12:04:39;15.80;99.90
19552;DHT22;9921;47.186;9.778;2023-04-24T12:07:07;16.10;99.90
19552;DHT22;9921;47.186;9.778;2023-04-24T12:09:41;16.10;99.90
19552;DHT22;9921;47.186;9.778;2023-04-24T12:12:09;16.10;99.90
19552;DHT22;9921;47.186;9.778;2023-04-24T12:14:47;16.20;99.90
19552;DHT22;9921;47.186;9.778;2023-04-24T12:17:14;16.30;99.90
19552;DHT22;9921;47.186;9.778;2023-04-24T12:19:46;16.50;99.90
19552;DHT22;9921;47.186;9.778;2023-04-24T12:22:13;16.50;99.90
19552;DHT22;9921;47.186;9.778;2023-04-24T12:24:56;16.30;99.90
19552;DHT22;9921;47.186;9.778;2023-04-24T12:27:24;16.20;99.90
19552;DHT22;9921;47.186;9.778;2023-04-24T12:29:55;15.90;99.90
19552;DHT22;9921;47.186;9.778;2023-04-24T12:32:22;15.80;99.90
19552;DHT22;9921;47.186;9.778;2023-04-24T12:34:52;15.70;99.90
19552;DHT22;9921;47.186;9.778;2023-04-24T12:37:19;15.50;99.90
19552;DHT22;9921;47.186;9.778;2023-04-24T12:39:59;15.30;99.90
19552;DHT22;9921;47.186;9.778;2023-04-24T12:42:26;15.10;99.90
19552;DHT22;9921;47.186;9.778;2023-04-24T12:44:56;15.00;99.90
19552;DHT22;9921;47.186;9.778;2023-04-24T12:47:24;15.00;99.90
19552;DHT22;9921;47.186;9.778;2023-04-24T12:49:52;15.30;99.90
19552;DHT22;9921;47.186;9.778;2023-04-24T12:52:21;15.40;99.90
19552;DHT22;9921;47.186;9.778;2023-04-24T12:54:49;15.70;99.90
19552;DHT22;9921;47.186;9.778;2023-04-24T12:57:16;15.70;99.90
19552;DHT22;9921;47.186;9.778;2023-04-24T12:59:43;15.60;99.90
19552;DHT22;9921;47.186;9.778;2023-04-24T13:02:10;15.40;99.90
19552;DHT22;9921;47.186;9.778;2023-04-24T13:04:37;15.10;99.90
19552;DHT22;9921;47.186;9.778;2023-04-24T13:07:06;14.70;99.90
19552;DHT22;9921;47.186;9.778;2023-04-24T13:09:34;14.10;99.90
19552;DHT22;9921;47.186;9.778;2023-04-24T13:12:02;13.90;99.90
19552;DHT22;9921;47.186;9.778;2023-04-24T13:14:30;14.00;99.90
19552;DHT22;9921;47.186;9.778;2023-04-24T13:16:57;14.30;99.90
19552;DHT22;9921;47.186;9.778;2023-04-24T13:19:25;14.60;99.90
19552;DHT22;9921;47.186;9.778;2023-04-24T13:21:52;14.50;99.90
19552;DHT22;9921;47.186;9.778;2023-04-24T13:24:20;14.40;99.90
19552;DHT22;9921;47.186;9.778;2023-04-24T13:26:50;14.50;99.90
19552;DHT22;9921;47.186;9.778;2023-04-24T13:29:17;14.60;99.90
19552;DHT22;9921;47.186;9.778;2023-04-24T13:31:44;14.60;99.90
19552;DHT22;9921;47.186;9.778;2023-04-24T13:34:11;14.50;99.90
19552;DHT22;9921;47.186;9.778;2023-04-24T13:36:38;14.70;99.90
19552;DHT22;9921;47.186;9.778;2023-04-24T13:39:05;14.90;99.90
19552;DHT22;9921;47.186;9.778;2023-04-24T13:41:33;15.00;99.90
19552;DHT22;9921;47.186;9.778;2023-04-24T13:44:01;15.30;99.90
19552;DHT22;9921;47.186;9.778;2023-04-24T13:46:28;15.30;99.90
19552;DHT22;9921;47.186;9.778;2023-04-24T13:48:54;15.10;99.90
19552;DHT22;9921;47.186;9.778;2023-04-24T13:51:22;15.00;99.90
19552;DHT22;9921;47.186;9.778;2023-04-24T13:53:49;15.30;99.90
19552;DHT22;9921;47.186;9.778;2023-04-24T13:56:16;15.50;99.90
19552;DHT22;9921;47.186;9.778;2023-04-24T13:58:44;15.20;99.90
19552;DHT22;9921;47.186;9.778;2023-04-24T14:01:11;14.80;99.90
19552;DHT22;9921;47.186;9.778;2023-04-24T14:03:38;14.80;99.90
19552;DHT22;9921;47.186;9.778;2023-04-24T14:06:05;15.00;99.90
19552;DHT22;9921;47.186;9.778;2023-04-24T14:08:32;15.10;99.90
19552;DHT22;9921;47.186;9.778;2023-04-24T14:10:59;14.90;99.90
19552;DHT22;9921;47.186;9.778;2023-04-24T14:13:26;15.10;99.90
19552;DHT22;9921;47.186;9.778;2023-04-24T14:15:55;15.10;99.90
19552;DHT22;9921;47.186;9.778;2023-04-24T14:18:22;15.00;99.90
19552;DHT22;9921;47.186;9.778;2023-04-24T14:20:49;14.80;99.90
19552;DHT22;9921;47.186;9.778;2023-04-24T14:23:15;14.50;99.90
19552;DHT22;9921;47.186;9.778;2023-04-24T14:25:42;14.10;99.90
19552;DHT22;9921;47.186;9.778;2023-04-24T14:28:09;14.00;99.90
19552;DHT22;9921;47.186;9.778;2023-04-24T14:30:36;14.10;99.90
19552;DHT22;9921;47.186;9.778;2023-04-24T14:33:07;14.40;99.90
19552;DHT22;9921;47.186;9.778;2023-04-24T14:35:34;14.70;99.90
19552;DHT22;9921;47.186;9.778;2023-04-24T14:38:01;15.10;99.90
19552;DHT22;9921;47.186;9.778;2023-04-24T14:40:28;15.30;99.90
19552;DHT22;9921;47.186;9.778;2023-04-24T14:42:55;15.50;99.90
19552;DHT22;9921;47.186;9.778;2023-04-24T14:45:23;15.50;99.90
19552;DHT22;9921;47.186;9.778;2023-04-24T14:47:50;15.40;99.90
19552;DHT22;9921;47.186;9.778;2023-04-24T14:50:18;15.40;99.90
19552;DHT22;9921;47.186;9.778;2023-04-24T14:52:45;15.40;99.90
19552;DHT22;9921;47.186;9.778;2023-04-24T14:55:13;15.30;99.90
19552;DHT22;9921;47.186;9.778;2023-04-24T14:57:40;15.20;99.90
19552;DHT22;9921;47.186;9.778;2023-04-24T15:00:07;15.10;99.90
19552;DHT22;9921;47.186;9.778;2023-04-24T15:02:35;15.00;99.90
19552;DHT22;9921;47.186;9.778;2023-04-24T15:05:06;15.20;99.90
19552;DHT22;9921;47.186;9.778;2023-04-24T15:07:35;15.30;99.90
19552;DHT22;9921;47.186;9.778;2023-04-24T15:10:03;15.40;99.90
19552;DHT22;9921;47.186;9.778;2023-04-24T15:12:29;15.50;99.90
19552;DHT22;9921;47.186;9.778;2023-04-24T15:14:58;15.50;99.90
19552;DHT22;9921;47.186;9.778;2023-04-24T15:17:25;15.60;99.90
19552;DHT22;9921;47.186;9.778;2023-04-24T15:19:52;15.70;99.90
19552;DHT22;9921;47.186;9.778;2023-04-24T15:22:19;15.70;99.90
19552;DHT22;9921;47.186;9.778;2023-04-24T15:24:47;15.60;99.90
19552;DHT22;9921;47.186;9.778;2023-04-24T15:27:14;15.60;99.90
19552;DHT22;9921;47.186;9.778;2023-04-24T15:29:41;15.60;99.90
19552;DHT22;9921;47.186;9.778;2023-04-24T15:32:08;15.40;99.90
19552;DHT22;9921;47.186;9.778;2023-04-24T15:34:35;15.40;99.90
19552;DHT22;9921;47.186;9.778;2023-04-24T15:37:02;15.30;99.90
19552;DHT22;9921;47.186;9.778;2023-04-24T15:39:29;15.20;99.90
19552;DHT22;9921;47.186;9.778;2023-04-24T15:41:58;15.20;99.90
19552;DHT22;9921;47.186;9.778;2023-04-24T15:44:25;15.20;99.90
19552;DHT22;9921;47.186;9.778;2023-04-24T15:46:52;15.40;99.90
19552;DHT22;9921;47.186;9.778;2023-04-24T15:49:19;15.50;99.90
19552;DHT22;9921;47.186;9.778;2023-04-24T15:51:46;15.60;99.90